Time;durP1;ratioP1;P1;durP2;ratioP2;P2;SDS_P1;SDS_P2;PMS_P1;PMS_P2;Temp;Humidity;BMP_temperature;BMP_pressure;BME280_temperature;BME280_humidity;BME280_pressure;Samples;Min_cycle;Max_cycle;Signal;HPM_P1;HPM_P2
2023/12/13 00:01:35;;;;;;;5.73;1.50;;;27.90;65.00;;;;;;4983614;28;20210;-72
2023/12/13 00:04:02;;;;;;;13.47;2.20;;;28.30;64.00;;;;;;4973233;28;20653;-72
2023/12/13 00:06:30;;;;;;;9.03;2.10;;;28.60;62.70;;;;;;4982932;28;20194;-72
2023/12/13 00:08:57;;;;;;;8.57;1.93;;;29.10;61.30;;;;;;4972126;28;20185;-72
2023/12/13 00:11:25;;;;;;;10.63;2.10;;;29.00;61.00;;;;;;4978598;28;20173;-70
2023/12/13 00:13:52;;;;;;;9.17;2.03;;;28.80;62.00;;;;;;4982422;28;20266;-71
2023/12/13 00:16:21;;;;;;;11.53;2.20;;;28.90;62.20;;;;;;4992724;28;20186;-70
2023/12/13 00:18:50;;;;;;;9.97;2.00;;;29.30;61.90;;;;;;4988549;28;20204;-71
2023/12/13 00:21:25;;;;;;;13.13;2.70;;;29.30;61.80;;;;;;4974752;28;20214;-70
2023/12/13 00:23:54;;;;;;;7.67;2.10;;;29.40;62.20;;;;;;4977825;28;20209;-71
2023/12/13 00:26:23;;;;;;;9.03;2.30;;;29.60;61.00;;;;;;4974079;28;20178;-72
2023/12/13 00:28:52;;;;;;;7.47;2.17;;;29.50;62.10;;;;;;4987593;28;20213;-69
2023/12/13 00:31:19;;;;;;;8.80;1.80;;;29.60;61.70;;;;;;4955334;28;20242;-74
2023/12/13 00:33:49;;;;;;;9.73;1.77;;;29.60;62.20;;;;;;4984072;28;20181;-71
2023/12/13 00:36:17;;;;;;;14.67;2.57;;;29.50;62.30;;;;;;4987729;28;20663;-71
2023/12/13 00:38:44;;;;;;;8.03;2.20;;;29.50;63.00;;;;;;4983405;28;20637;-71
2023/12/13 00:41:16;;;;;;;14.20;2.50;;;29.40;63.50;;;;;;4984074;28;20256;-75
2023/12/13 00:43:43;;;;;;;7.80;2.10;;;29.30;63.20;;;;;;4979683;28;20640;-71
2023/12/13 00:46:22;;;;;;;8.27;1.93;;;29.30;63.40;;;;;;4984886;28;20289;-71
2023/12/13 00:48:50;;;;;;;13.83;2.30;;;29.30;63.50;;;;;;4970981;28;20201;-71
2023/12/13 00:51:22;;;;;;;8.80;2.00;;;29.70;62.40;;;;;;4984684;28;20193;-72
2023/12/13 00:53:50;;;;;;;12.97;3.33;;;29.70;62.10;;;;;;4978522;28;20209;-71
2023/12/13 00:56:18;;;;;;;10.87;2.40;;;29.50;62.80;;;;;;4969516;28;20285;-73
2023/12/13 00:58:47;;;;;;;12.27;2.60;;;29.20;62.80;;;;;;4989168;28;20252;-70
2023/12/13 01:01:16;;;;;;;8.80;2.07;;;29.10;63.50;;;;;;4974443;28;20202;-72
2023/12/13 01:03:46;;;;;;;10.13;2.50;;;29.10;62.10;;;;;;4978543;28;20194;-69
2023/12/13 01:06:15;;;;;;;7.43;2.00;;;29.20;62.10;;;;;;4988601;28;20188;-72
2023/12/13 01:08:42;;;;;;;9.50;2.13;;;29.30;60.80;;;;;;4990822;28;20212;-71
2023/12/13 01:11:12;;;;;;;7.70;1.93;;;29.10;61.30;;;;;;4990527;28;20209;-70
2023/12/13 01:13:39;;;;;;;8.40;2.63;;;28.80;62.20;;;;;;4986334;28;20226;-72
2023/12/13 01:16:08;;;;;;;10.77;2.10;;;28.50;63.00;;;;;;4985734;28;20533;-69
2023/12/13 01:18:36;;;;;;;5.23;1.93;;;28.30;63.70;;;;;;4988978;28;20599;-71
2023/12/13 01:21:03;;;;;;;12.63;2.97;;;28.20;64.10;;;;;;4982261;28;20648;-68
2023/12/13 01:23:30;;;;;;;9.70;2.43;;;27.80;65.30;;;;;;4978359;28;20693;-68
2023/12/13 01:25:58;;;;;;;11.80;2.70;;;27.90;66.70;;;;;;4987818;28;20194;-71
2023/12/13 01:28:25;;;;;;;10.53;2.20;;;28.30;65.30;;;;;;4987476;28;20205;-70
2023/12/13 01:30:52;;;;;;;11.57;2.73;;;28.70;63.50;;;;;;4975312;28;20260;-72
2023/12/13 01:33:20;;;;;;;8.93;2.47;;;29.20;62.70;;;;;;4989570;28;20196;-72
2023/12/13 01:35:47;;;;;;;15.33;1.90;;;29.20;62.00;;;;;;4986295;28;20229;-68
2023/12/13 01:38:14;;;;;;;9.57;2.47;;;29.30;62.60;;;;;;4986520;28;20190;-69
2023/12/13 01:40:50;;;;;;;8.60;2.27;;;29.70;60.10;;;;;;4988350;28;20189;-69
2023/12/13 01:43:24;;;;;;;7.93;2.10;;;29.10;61.20;;;;;;4979169;28;20190;-70
2023/12/13 01:45:55;;;;;;;8.87;2.20;;;28.90;63.00;;;;;;4981249;28;20199;-69
2023/12/13 01:48:26;;;;;;;11.70;2.30;;;28.80;62.60;;;;;;4979862;28;20276;-73
2023/12/13 01:50:57;;;;;;;11.50;2.23;;;28.60;63.00;;;;;;4991404;28;20198;-72
2023/12/13 01:53:27;;;;;;;9.03;1.87;;;28.00;64.40;;;;;;4989507;28;20243;-69
2023/12/13 01:55:56;;;;;;;11.37;2.10;;;27.90;65.20;;;;;;4989715;28;20293;-70
2023/12/13 01:58:24;;;;;;;7.73;2.20;;;28.00;64.80;;;;;;4989958;28;20190;-69
2023/12/13 02:00:52;;;;;;;11.23;2.60;;;28.20;64.20;;;;;;4986429;28;20209;-69
2023/12/13 02:03:22;;;;;;;7.83;2.27;;;28.60;63.60;;;;;;4989862;28;20198;-71
2023/12/13 02:05:53;;;;;;;8.83;2.27;;;28.80;63.20;;;;;;4991607;28;20567;-70
2023/12/13 02:08:23;;;;;;;5.60;2.00;;;29.30;61.00;;;;;;4987333;28;20194;-71
2023/12/13 02:10:50;;;;;;;10.10;2.00;;;29.50;61.70;;;;;;4983159;28;20182;-71
2023/12/13 02:13:19;;;;;;;13.13;2.80;;;29.50;61.70;;;;;;4992547;28;20660;-69
2023/12/13 02:15:50;;;;;;;7.33;1.63;;;29.80;61.40;;;;;;4992302;28;20186;-73
2023/12/13 02:18:17;;;;;;;8.63;2.23;;;29.70;61.00;;;;;;4986031;28;20206;-68
2023/12/13 02:20:45;;;;;;;8.03;2.13;;;29.30;62.70;;;;;;4983359;28;20239;-72
2023/12/13 02:23:13;;;;;;;8.77;2.13;;;29.50;62.10;;;;;;4988412;28;20474;-69
2023/12/13 02:26:00;;;;;;;12.30;2.57;;;29.50;62.50;;;;;;4975851;28;20265;-74
2023/12/13 02:28:30;;;;;;;9.73;2.20;;;29.60;61.40;;;;;;4985743;28;20213;-71
2023/12/13 02:30:59;;;;;;;10.07;2.20;;;29.80;61.30;;;;;;4989525;28;20304;-70
2023/12/13 02:33:29;;;;;;;10.20;2.70;;;29.90;61.20;;;;;;4984356;28;20209;-71
2023/12/13 02:35:59;;;;;;;11.60;2.53;;;30.00;61.40;;;;;;4986352;28;20173;-70
2023/12/13 02:38:27;;;;;;;9.70;2.10;;;30.20;61.10;;;;;;4971940;28;20250;-72
2023/12/13 02:40:55;;;;;;;8.07;2.53;;;29.90;61.00;;;;;;4980498;28;20265;-69
2023/12/13 02:43:24;;;;;;;12.03;2.90;;;29.90;62.30;;;;;;4964431;28;20206;-70
2023/12/13 02:45:55;;;;;;;10.13;2.50;;;30.00;61.30;;;;;;4974037;28;20245;-69
2023/12/13 02:48:22;;;;;;;11.03;2.57;;;30.10;60.80;;;;;;4977209;28;20270;-71
2023/12/13 02:50:52;;;;;;;7.23;2.30;;;29.90;59.80;;;;;;4973289;28;20190;-75
2023/12/13 02:53:20;;;;;;;7.50;2.40;;;29.90;60.70;;;;;;4991838;28;20182;-69
2023/12/13 02:55:48;;;;;;;10.00;2.30;;;29.80;60.30;;;;;;4975197;28;20222;-70
2023/12/13 02:58:16;;;;;;;10.50;2.67;;;29.40;62.50;;;;;;4985229;28;20214;-75
2023/12/13 03:00:46;;;;;;;10.93;2.83;;;29.80;61.10;;;;;;4991665;28;20196;-74
2023/12/13 03:03:13;;;;;;;9.03;2.23;;;29.80;61.10;;;;;;4991559;28;20227;-70
2023/12/13 03:05:40;;;;;;;5.80;2.00;;;30.00;60.10;;;;;;4988419;28;20748;-69
2023/12/13 03:08:08;;;;;;;8.57;2.20;;;29.80;60.40;;;;;;4990044;28;20529;-73
2023/12/13 03:10:35;;;;;;;7.83;2.43;;;30.00;60.70;;;;;;4988810;28;20182;-71
2023/12/13 03:13:02;;;;;;;9.53;2.60;;;30.30;60.40;;;;;;4984689;28;20667;-74
2023/12/13 03:15:30;;;;;;;6.70;2.00;;;30.30;59.40;;;;;;4992082;28;20189;-71
2023/12/13 03:17:57;;;;;;;12.38;2.60;;;30.10;59.20;;;;;;4990897;28;20277;-73
2023/12/13 03:20:24;;;;;;;11.60;3.00;;;30.20;60.00;;;;;;4987463;28;20225;-70
2023/12/13 03:22:52;;;;;;;10.00;2.97;;;30.30;60.00;;;;;;4980003;28;20261;-69
2023/12/13 03:25:21;;;;;;;5.80;2.20;;;30.10;60.40;;;;;;4988314;28;20177;-70
2023/12/13 03:27:48;;;;;;;10.25;2.90;;;30.20;59.90;;;;;;4989459;28;20194;-72
2023/12/13 03:30:15;;;;;;;12.70;2.80;;;30.30;59.60;;;;;;4991316;28;20230;-67
2023/12/13 03:32:44;;;;;;;6.90;2.43;;;30.30;60.70;;;;;;4984917;28;20288;-69
2023/12/13 03:35:11;;;;;;;13.33;2.80;;;30.80;58.80;;;;;;4989602;28;20225;-69
2023/12/13 03:37:40;;;;;;;12.45;3.00;;;30.90;58.90;;;;;;4982706;28;20264;-71
2023/12/13 03:40:09;;;;;;;9.52;2.78;;;31.30;57.60;;;;;;4976423;28;20178;-70
2023/12/13 03:42:36;;;;;;;11.88;2.72;;;31.00;57.60;;;;;;4988358;28;20291;-68
2023/12/13 03:45:07;;;;;;;11.40;3.10;;;31.30;57.40;;;;;;4977260;28;20202;-68
2023/12/13 03:47:34;;;;;;;8.88;3.20;;;31.60;56.20;;;;;;4975688;28;20284;-67
2023/12/13 03:50:01;;;;;;;14.30;3.22;;;31.00;58.60;;;;;;4987672;28;20190;-71
2023/12/13 03:52:28;;;;;;;12.65;3.35;;;31.80;57.00;;;;;;4984607;28;20193;-69
2023/12/13 03:54:56;;;;;;;17.42;3.50;;;31.80;56.30;;;;;;4991960;28;20190;-71
2023/12/13 03:57:23;;;;;;;11.32;2.78;;;31.80;56.60;;;;;;4979489;28;20637;-72
2023/12/13 03:59:51;;;;;;;11.07;3.15;;;31.50;57.70;;;;;;4980668;28;20188;-70
2023/12/13 04:02:19;;;;;;;11.73;2.83;;;32.00;56.40;;;;;;4980079;28;20614;-69
2023/12/13 04:04:47;;;;;;;17.05;3.05;;;32.20;55.10;;;;;;4984457;28;20189;-71
2023/12/13 04:07:18;;;;;;;11.07;3.15;;;32.10;56.10;;;;;;4954088;28;20195;-67
2023/12/13 04:09:48;;;;;;;10.73;2.95;;;32.40;54.90;;;;;;4985470;28;20550;-68
2023/12/13 04:12:16;;;;;;;11.93;3.28;;;32.00;55.10;;;;;;4980498;28;20187;-71
2023/12/13 04:14:45;;;;;;;10.88;3.25;;;31.80;55.80;;;;;;4984529;28;20186;-72
2023/12/13 04:17:12;;;;;;;8.43;2.90;;;31.70;55.30;;;;;;4976081;28;20405;-69
2023/12/13 04:19:39;;;;;;;13.90;3.22;;;31.70;56.10;;;;;;4991199;28;20270;-71
2023/12/13 04:22:07;;;;;;;14.27;3.42;;;31.60;56.00;;;;;;4981166;28;20225;-70
2023/12/13 04:24:34;;;;;;;13.60;3.85;;;32.00;54.80;;;;;;4983983;28;20206;-70
2023/12/13 04:27:02;;;;;;;10.07;3.17;;;31.60;55.90;;;;;;4980893;28;20198;-69
2023/12/13 04:29:29;;;;;;;12.38;3.65;;;31.20;55.80;;;;;;4987213;28;20272;-70
2023/12/13 04:31:57;;;;;;;10.73;2.78;;;31.00;57.40;;;;;;4984615;28;20687;-72
2023/12/13 04:34:24;;;;;;;11.85;3.40;;;31.20;57.20;;;;;;4981186;28;20190;-72
2023/12/13 04:36:55;;;;;;;14.80;3.55;;;31.40;56.20;;;;;;4986862;28;20240;-72
2023/12/13 04:39:22;;;;;;;12.43;3.00;;;31.50;55.60;;;;;;4991236;28;20639;-71
2023/12/13 04:41:51;;;;;;;12.32;3.30;;;31.30;56.20;;;;;;4987946;28;20332;-70
2023/12/13 04:44:18;;;;;;;13.90;3.55;;;31.30;56.60;;;;;;4978885;28;20205;-66
2023/12/13 04:46:45;;;;;;;10.55;3.05;;;31.30;55.80;;;;;;4987810;28;20216;-68
2023/12/13 04:49:13;;;;;;;13.88;3.90;;;31.20;56.20;;;;;;4980320;28;20182;-70
2023/12/13 04:51:40;;;;;;;15.38;3.10;;;31.50;55.80;;;;;;4989097;28;20645;-68
2023/12/13 04:54:11;;;;;;;15.88;3.17;;;32.30;54.20;;;;;;4978506;28;20657;-68
2023/12/13 04:56:38;;;;;;;11.18;3.00;;;32.60;53.00;;;;;;4983598;28;20182;-71
2023/12/13 04:59:07;;;;;;;8.90;2.70;;;32.20;54.10;;;;;;4983746;28;20186;-68
2023/12/13 05:01:34;;;;;;;12.55;3.22;;;31.70;54.80;;;;;;4984135;28;20221;-71
2023/12/13 05:04:02;;;;;;;10.98;3.03;;;31.30;55.80;;;;;;4989107;28;21230;-71
2023/12/13 05:06:29;;;;;;;12.82;3.00;;;30.90;56.50;;;;;;4981121;28;20225;-69
2023/12/13 05:08:56;;;;;;;14.48;3.13;;;31.20;56.50;;;;;;4986037;28;20524;-73
2023/12/13 05:11:24;;;;;;;13.05;3.35;;;31.30;55.50;;;;;;4986586;28;20642;-70
2023/12/13 05:13:52;;;;;;;12.07;3.13;;;30.90;56.90;;;;;;4980164;28;20523;-68
2023/12/13 05:16:20;;;;;;;9.57;2.90;;;30.80;56.80;;;;;;4985481;28;20298;-70
2023/12/13 05:18:49;;;;;;;9.43;2.90;;;31.30;55.20;;;;;;4987795;28;20186;-68
2023/12/13 05:21:16;;;;;;;10.93;2.80;;;31.30;55.20;;;;;;4982650;28;20210;-71
2023/12/13 05:23:47;;;;;;;14.60;3.00;;;31.40;55.50;;;;;;4991653;28;20190;-70
2023/12/13 05:26:14;;;;;;;11.40;2.80;;;31.30;54.90;;;;;;4988535;28;20174;-69
2023/12/13 05:28:41;;;;;;;12.18;2.85;;;32.20;53.00;;;;;;4994485;28;20668;-69
2023/12/13 05:31:19;;;;;;;12.18;2.50;;;32.30;52.90;;;;;;4984706;28;20276;-69
2023/12/13 05:33:47;;;;;;;8.55;2.53;;;32.00;53.00;;;;;;4983384;28;20194;-72
2023/12/13 05:36:15;;;;;;;11.13;2.95;;;31.60;54.20;;;;;;4991165;28;20260;-71
2023/12/13 05:38:46;;;;;;;8.43;2.58;;;32.30;53.50;;;;;;4990716;28;20194;-73
2023/12/13 05:41:13;;;;;;;12.10;2.80;;;32.10;53.10;;;;;;4985454;28;20210;-70
2023/12/13 05:43:42;;;;;;;9.15;2.50;;;32.00;53.80;;;;;;4987915;28;20595;-71
2023/12/13 05:46:09;;;;;;;14.35;2.53;;;31.10;55.30;;;;;;4987176;28;20194;-69
2023/12/13 05:48:39;;;;;;;8.30;2.17;;;30.30;57.70;;;;;;4991881;28;20711;-70
2023/12/13 05:51:07;;;;;;;9.10;2.50;;;30.00;57.80;;;;;;4989393;28;20203;-73
2023/12/13 05:53:34;;;;;;;7.65;2.45;;;30.50;56.50;;;;;;4983416;28;20252;-70
2023/12/13 05:56:02;;;;;;;8.25;2.10;;;30.40;56.20;;;;;;4993249;28;20191;-71
2023/12/13 05:58:32;;;;;;;11.45;2.60;;;29.50;58.50;;;;;;4993917;28;20174;-71
2023/12/13 06:00:59;;;;;;;11.33;2.60;;;29.50;59.30;;;;;;4989675;28;20182;-72
2023/12/13 06:03:27;;;;;;;12.38;2.72;;;29.80;58.10;;;;;;4984234;28;20237;-72
2023/12/13 06:05:55;;;;;;;10.27;2.23;;;29.30;59.70;;;;;;4988434;28;20477;-71
2023/12/13 06:08:24;;;;;;;12.30;2.77;;;29.00;61.00;;;;;;4992006;28;20186;-71
2023/12/13 06:10:51;;;;;;;11.17;2.50;;;29.20;60.50;;;;;;4989587;28;20185;-68
2023/12/13 06:13:18;;;;;;;14.30;2.50;;;28.70;61.90;;;;;;4987658;28;20209;-68
2023/12/13 06:15:47;;;;;;;12.73;2.73;;;28.50;62.20;;;;;;4982795;28;20190;-70
2023/12/13 06:18:14;;;;;;;14.70;3.77;;;28.30;63.40;;;;;;4986082;28;20189;-69
2023/12/13 06:20:41;;;;;;;12.23;2.60;;;28.00;64.00;;;;;;4982182;28;20630;-68
2023/12/13 06:23:09;;;;;;;13.80;2.37;;;28.40;62.80;;;;;;4984934;28;20216;-74
2023/12/13 06:25:36;;;;;;;12.53;2.83;;;29.20;60.60;;;;;;4992824;28;20636;-70
2023/12/13 06:28:05;;;;;;;11.30;2.40;;;29.30;60.40;;;;;;4993362;28;20656;-71
2023/12/13 06:30:32;;;;;;;11.23;2.70;;;29.60;59.80;;;;;;4985221;28;20230;-71
2023/12/13 06:32:59;;;;;;;16.47;2.83;;;29.70;59.20;;;;;;4988610;28;20258;-73
2023/12/13 06:35:27;;;;;;;12.90;2.73;;;29.00;61.10;;;;;;4990696;28;20217;-70
2023/12/13 06:37:55;;;;;;;7.90;2.27;;;28.80;62.30;;;;;;4993501;28;20182;-69
2023/12/13 06:40:24;;;;;;;13.23;2.77;;;28.80;62.60;;;;;;4981582;28;20188;-72
2023/12/13 06:42:51;;;;;;;16.77;3.57;;;28.80;62.40;;;;;;4975644;28;20312;-71
2023/12/13 06:45:20;;;;;;;14.67;3.33;;;28.60;62.80;;;;;;4992409;28;20178;-70
2023/12/13 06:47:48;;;;;;;14.33;4.30;;;28.60;62.80;;;;;;4989312;28;20221;-67
2023/12/13 06:50:19;;;;;;;17.53;2.97;;;29.60;60.50;;;;;;4987496;28;20266;-70
2023/12/13 06:52:49;;;;;;;10.53;2.97;;;30.50;57.80;;;;;;4991749;28;20188;-68
2023/12/13 06:55:16;;;;;;;11.63;2.55;;;30.50;58.00;;;;;;4983589;28;20736;-68
2023/12/13 06:57:44;;;;;;;12.18;3.05;;;30.80;56.20;;;;;;4986206;28;20190;-69
2023/12/13 07:00:12;;;;;;;13.37;3.27;;;30.60;57.20;;;;;;4991844;28;20225;-69
2023/12/13 07:02:39;;;;;;;11.00;2.67;;;30.40;57.70;;;;;;4991467;28;20218;-69
2023/12/13 07:05:07;;;;;;;13.23;3.10;;;30.50;57.40;;;;;;4987549;28;20611;-70
2023/12/13 07:07:35;;;;;;;13.02;4.13;;;30.20;57.80;;;;;;4986673;28;20181;-70
2023/12/13 07:10:03;;;;;;;14.97;3.30;;;30.10;57.90;;;;;;4993596;28;20177;-70
2023/12/13 07:12:30;;;;;;;17.30;3.58;;;30.20;58.00;;;;;;4972319;28;20187;-70
2023/12/13 07:15:03;;;;;;;14.50;3.60;;;29.60;59.40;;;;;;4986707;28;20629;-70
2023/12/13 07:17:30;;;;;;;12.63;3.37;;;29.10;60.70;;;;;;4993048;28;20186;-74
2023/12/13 07:19:59;;;;;;;18.80;3.77;;;28.70;62.00;;;;;;4976776;28;20189;-69
2023/12/13 07:22:26;;;;;;;14.70;2.77;;;28.40;63.00;;;;;;4991976;28;20261;-69
2023/12/13 07:24:53;;;;;;;11.13;2.67;;;28.50;62.80;;;;;;4990882;28;20182;-70
2023/12/13 07:27:24;;;;;;;12.83;2.63;;;28.10;63.90;;;;;;4989810;28;20549;-70
2023/12/13 07:29:51;;;;;;;16.27;2.73;;;27.60;65.70;;;;;;4989320;28;20233;-69
2023/12/13 07:32:19;;;;;;;18.43;3.10;;;27.30;66.60;;;;;;4982512;28;20191;-68
2023/12/13 07:34:48;;;;;;;14.03;3.20;;;27.10;68.10;;;;;;4986516;28;20187;-68
2023/12/13 07:37:16;;;;;;;17.40;3.47;;;26.90;68.20;;;;;;4989967;28;20210;-68
2023/12/13 07:39:44;;;;;;;14.63;3.10;;;26.80;68.80;;;;;;4988258;28;20228;-72
2023/12/13 07:42:11;;;;;;;14.67;2.83;;;27.00;68.70;;;;;;4993042;28;20696;-71
2023/12/13 07:44:39;;;;;;;15.17;3.13;;;26.80;69.10;;;;;;4981283;28;21601;-68
2023/12/13 07:47:06;;;;;;;12.93;2.77;;;26.60;69.50;;;;;;4989527;28;20186;-70
2023/12/13 07:49:33;;;;;;;19.77;3.80;;;26.40;70.30;;;;;;4990703;28;20185;-70
2023/12/13 07:52:01;;;;;;;16.23;3.53;;;26.30;70.50;;;;;;4993197;28;20181;-69
2023/12/13 07:54:28;;;;;;;13.63;3.57;;;26.30;71.00;;;;;;4983486;28;20209;-71
2023/12/13 07:56:56;;;;;;;15.90;2.83;;;26.10;71.50;;;;;;4992817;28;20190;-73
2023/12/13 07:59:23;;;;;;;13.90;3.47;;;26.00;72.30;;;;;;4991356;28;20224;-71
2023/12/13 08:01:50;;;;;;;16.53;3.80;;;26.00;72.70;;;;;;4993386;28;20205;-70
2023/12/13 08:04:20;;;;;;;17.63;3.80;;;25.90;72.80;;;;;;4983664;28;20605;-70
2023/12/13 08:06:52;;;;;;;19.10;3.53;;;25.90;72.90;;;;;;4992771;28;20220;-70
2023/12/13 08:09:23;;;;;;;19.40;3.90;;;25.80;73.20;;;;;;4993659;28;20194;-66
2023/12/13 08:11:50;;;;;;;21.47;3.90;;;25.80;73.40;;;;;;4990698;28;20664;-69
2023/12/13 08:14:18;;;;;;;13.23;3.23;;;25.70;73.90;;;;;;4992928;28;20594;-71
2023/12/13 08:16:45;;;;;;;15.67;3.53;;;25.60;74.30;;;;;;4992778;28;20185;-69
2023/12/13 08:19:12;;;;;;;12.17;3.23;;;25.50;74.60;;;;;;4980586;28;20642;-70
2023/12/13 08:21:41;;;;;;;16.63;3.67;;;25.40;74.80;;;;;;4988940;28;20218;-70
2023/12/13 08:24:11;;;;;;;24.20;4.20;;;25.40;74.90;;;;;;4993123;28;20217;-72
2023/12/13 08:26:38;;;;;;;24.90;4.17;;;25.30;75.20;;;;;;4972953;28;20652;-68
2023/12/13 08:29:06;;;;;;;16.33;4.37;;;25.20;75.60;;;;;;4988759;28;20205;-71
2023/12/13 08:31:33;;;;;;;18.17;3.60;;;25.10;76.40;;;;;;4982090;28;20287;-68
2023/12/13 08:34:00;;;;;;;18.67;4.30;;;25.00;76.90;;;;;;4992984;28;20186;-70
2023/12/13 08:36:28;;;;;;;19.87;4.07;;;24.90;77.30;;;;;;4989777;28;20182;-69
2023/12/13 08:38:58;;;;;;;17.67;3.80;;;24.90;77.20;;;;;;4991336;28;20640;-69
2023/12/13 08:41:28;;;;;;;15.20;3.60;;;24.80;77.50;;;;;;4985161;28;20228;-69
2023/12/13 08:43:56;;;;;;;17.80;3.97;;;24.90;77.60;;;;;;4986107;28;20185;-70
2023/12/13 08:46:23;;;;;;;19.03;3.70;;;24.80;78.00;;;;;;4983467;28;20638;-68
2023/12/13 08:48:51;;;;;;;16.80;4.10;;;24.80;78.00;;;;;;4986194;28;20193;-68
2023/12/13 08:51:18;;;;;;;18.30;3.50;;;24.80;78.10;;;;;;4987330;28;20181;-68
2023/12/13 08:53:49;;;;;;;18.73;3.93;;;24.80;78.30;;;;;;4990701;28;20217;-66
2023/12/13 08:56:17;;;;;;;21.83;3.90;;;24.70;78.80;;;;;;4990390;28;20186;-69
2023/12/13 08:58:45;;;;;;;19.77;4.80;;;24.60;79.00;;;;;;4995064;28;20554;-72
2023/12/13 09:01:13;;;;;;;19.20;4.10;;;24.60;79.20;;;;;;4986624;28;20224;-68
2023/12/13 09:03:40;;;;;;;17.17;3.80;;;24.50;79.50;;;;;;4974939;28;20210;-68
2023/12/13 09:06:09;;;;;;;24.93;4.20;;;24.50;79.40;;;;;;4996855;28;20178;-68
2023/12/13 09:08:36;;;;;;;23.47;4.30;;;24.50;79.30;;;;;;4991401;28;20267;-67
2023/12/13 09:11:04;;;;;;;21.83;3.93;;;24.50;79.40;;;;;;4987384;28;20175;-69
2023/12/13 09:13:32;;;;;;;19.73;4.00;;;24.50;79.80;;;;;;4986477;28;20318;-69
2023/12/13 09:15:59;;;;;;;18.60;3.53;;;24.50;79.90;;;;;;4994695;28;20306;-69
2023/12/13 09:18:27;;;;;;;21.17;4.33;;;24.50;80.00;;;;;;4987316;28;20541;-69
2023/12/13 09:20:54;;;;;;;20.27;3.97;;;24.40;79.90;;;;;;4978253;28;20186;-70
2023/12/13 09:23:23;;;;;;;15.23;3.90;;;24.50;79.90;;;;;;4995858;28;20182;-67
2023/12/13 09:25:51;;;;;;;15.93;3.80;;;24.40;80.00;;;;;;4996136;28;20225;-69
2023/12/13 09:28:19;;;;;;;18.77;3.93;;;24.40;80.10;;;;;;4995971;28;20178;-68
2023/12/13 09:30:50;;;;;;;17.20;3.73;;;24.40;80.00;;;;;;4994933;28;20224;-68
2023/12/13 09:33:17;;;;;;;20.70;4.07;;;24.40;80.30;;;;;;4995818;28;20182;-68
2023/12/13 09:35:45;;;;;;;20.57;4.00;;;24.40;79.90;;;;;;4995532;28;20174;-71
2023/12/13 09:38:12;;;;;;;20.10;3.60;;;24.50;79.80;;;;;;4993475;28;20178;-68
2023/12/13 09:40:40;;;;;;;22.10;3.87;;;24.40;79.70;;;;;;4977813;28;20270;-72
2023/12/13 09:43:08;;;;;;;16.13;3.97;;;24.40;79.80;;;;;;4988872;28;20620;-68
2023/12/13 09:45:37;;;;;;;21.97;4.50;;;24.50;79.60;;;;;;4994146;28;20190;-72
2023/12/13 09:48:06;;;;;;;19.90;3.83;;;24.50;79.40;;;;;;4992148;28;20187;-70
2023/12/13 09:50:35;;;;;;;19.23;4.13;;;24.50;79.80;;;;;;4978493;28;20221;-69
2023/12/13 09:53:04;;;;;;;24.27;4.37;;;24.60;79.50;;;;;;4995374;28;20229;-69
2023/12/13 09:55:32;;;;;;;15.47;3.83;;;24.50;79.40;;;;;;4978473;28;20193;-69
2023/12/13 09:57:59;;;;;;;19.20;4.63;;;24.50;79.60;;;;;;4994977;28;20541;-69
2023/12/13 10:00:26;;;;;;;20.80;4.07;;;24.50;79.50;;;;;;4994163;28;20260;-70
2023/12/13 10:02:54;;;;;;;17.17;4.17;;;24.50;79.60;;;;;;4991936;28;20219;-70
2023/12/13 10:05:25;;;;;;;19.67;3.67;;;24.50;79.80;;;;;;4984129;28;20264;-68
2023/12/13 10:08:02;;;;;;;17.90;4.20;;;24.50;79.80;;;;;;4986583;28;20182;-71
2023/12/13 10:10:37;;;;;;;23.87;4.33;;;24.40;80.10;;;;;;4980371;28;20328;-70
2023/12/13 10:13:09;;;;;;;21.13;3.97;;;24.40;80.40;;;;;;4993078;28;20195;-70
2023/12/13 10:15:37;;;;;;;20.97;4.67;;;24.50;80.30;;;;;;4990702;28;20194;-66
2023/12/13 10:18:04;;;;;;;17.40;4.23;;;24.50;80.10;;;;;;4984654;28;20190;-70
2023/12/13 10:20:41;;;;;;;26.70;4.10;;;24.60;80.00;;;;;;4991337;28;20217;-70
2023/12/13 10:23:09;;;;;;;22.43;4.73;;;24.50;80.00;;;;;;4990835;28;20221;-72
2023/12/13 10:25:38;;;;;;;24.03;4.57;;;24.60;80.10;;;;;;4980085;28;20182;-69
2023/12/13 10:28:06;;;;;;;23.77;4.27;;;24.60;80.30;;;;;;4990857;28;20193;-70
2023/12/13 10:30:35;;;;;;;22.17;4.63;;;24.60;80.00;;;;;;4975217;28;20328;-70
2023/12/13 10:33:02;;;;;;;24.83;4.67;;;24.60;80.30;;;;;;4991789;28;20186;-66
2023/12/13 10:35:32;;;;;;;20.57;3.90;;;24.60;80.30;;;;;;4994625;28;20640;-68
2023/12/13 10:38:03;;;;;;;19.77;4.17;;;24.70;80.10;;;;;;4994610;28;20186;-68
2023/12/13 10:40:30;;;;;;;16.83;4.33;;;24.70;80.10;;;;;;4995207;28;20720;-70
2023/12/13 10:42:59;;;;;;;25.33;4.70;;;24.70;80.10;;;;;;4991650;28;20209;-68
2023/12/13 10:45:26;;;;;;;22.43;4.10;;;24.80;80.00;;;;;;4989238;28;20198;-67
2023/12/13 10:48:01;;;;;;;20.90;4.27;;;24.80;79.60;;;;;;4994538;28;20186;-67
2023/12/13 10:50:30;;;;;;;24.03;4.50;;;24.80;79.60;;;;;;4984171;28;20194;-69
2023/12/13 10:53:01;;;;;;;15.40;4.03;;;24.80;79.40;;;;;;4968648;28;20193;-70
2023/12/13 10:55:30;;;;;;;25.03;4.30;;;24.80;79.50;;;;;;4989598;28;20182;-67
2023/12/13 10:57:57;;;;;;;19.00;3.80;;;24.80;79.30;;;;;;4992484;28;20548;-67
2023/12/13 11:00:27;;;;;;;23.27;4.50;;;24.80;79.20;;;;;;4987531;28;20596;-70
2023/12/13 11:03:22;;;;;;;22.13;4.37;;;24.90;79.10;;;;;;4994340;28;20587;-69
2023/12/13 11:05:49;;;;;;;15.53;3.73;;;24.90;78.60;;;;;;4987424;28;20549;-71
2023/12/13 11:08:19;;;;;;;15.23;3.97;;;24.90;78.80;;;;;;4991338;28;20182;-69
2023/12/13 11:11:02;;;;;;;16.30;4.10;;;24.90;78.60;;;;;;4975671;28;20184;-71
2023/12/13 11:13:31;;;;;;;21.67;4.17;;;25.00;78.70;;;;;;4987010;28;20632;-71
2023/12/13 11:15:59;;;;;;;17.07;4.40;;;25.00;78.60;;;;;;4988659;28;20174;-70
2023/12/13 11:18:28;;;;;;;18.90;4.50;;;25.00;78.50;;;;;;4990808;28;20312;-70
2023/12/13 11:20:56;;;;;;;19.77;4.00;;;25.00;78.50;;;;;;5004404;28;20182;-71
2023/12/13 11:23:28;;;;;;;25.00;4.03;;;25.00;78.60;;;;;;4976786;28;20193;-72
2023/12/13 11:25:56;;;;;;;14.40;3.40;;;25.10;78.50;;;;;;4983779;28;20799;-69
2023/12/13 11:28:24;;;;;;;16.17;4.27;;;25.10;77.90;;;;;;4991302;28;20237;-67
2023/12/13 11:30:54;;;;;;;17.90;3.70;;;25.20;77.70;;;;;;4982978;28;20230;-66
2023/12/13 11:33:22;;;;;;;17.33;4.10;;;25.20;77.50;;;;;;4992085;28;20174;-66
2023/12/13 11:35:52;;;;;;;19.53;3.57;;;25.20;77.20;;;;;;4993715;28;20264;-67
2023/12/13 11:38:31;;;;;;;13.10;2.80;;;25.30;76.60;;;;;;5084696;27;20569;-68
2023/12/13 11:40:59;;;;;;;12.53;3.73;;;25.30;76.40;;;;;;5072526;28;20187;-64
2023/12/13 11:43:26;;;;;;;11.10;3.73;;;25.40;76.10;;;;;;5067437;28;20249;-68
2023/12/13 11:45:54;;;;;;;11.37;3.03;;;25.60;75.80;;;;;;5064306;28;20526;-66
2023/12/13 11:48:24;;;;;;;18.87;4.30;;;25.70;75.60;;;;;;5057128;28;20209;-69
2023/12/13 11:50:53;;;;;;;13.77;3.83;;;25.70;75.80;;;;;;5058220;28;20175;-67
2023/12/13 11:53:22;;;;;;;11.60;3.30;;;25.70;76.30;;;;;;5069733;28;20187;-71
2023/12/13 11:55:52;;;;;;;12.23;4.10;;;25.50;76.70;;;;;;5065668;28;20221;-73
2023/12/13 11:58:26;;;;;;;13.43;4.10;;;25.40;77.40;;;;;;5060578;28;20720;-71
2023/12/13 12:00:53;;;;;;;16.40;4.10;;;25.30;77.60;;;;;;5068964;28;20183;-74
2023/12/13 12:03:21;;;;;;;18.30;3.80;;;25.00;80.30;;;;;;5069673;28;20308;-69
2023/12/13 12:05:49;;;;;;;20.13;4.47;;;24.60;81.50;;;;;;5066223;28;20199;-73
2023/12/13 12:08:16;;;;;;;18.80;4.10;;;24.20;84.20;;;;;;5062939;28;20574;-66
2023/12/13 12:10:43;;;;;;;20.00;4.57;;;23.90;85.70;;;;;;5068396;28;20214;-72
2023/12/13 12:13:11;;;;;;;18.60;3.97;;;23.70;86.60;;;;;;5068763;28;20688;-65
2023/12/13 12:15:41;;;;;;;15.00;4.77;;;23.60;87.20;;;;;;5065582;28;20175;-73
2023/12/13 12:18:08;;;;;;;17.10;4.20;;;23.60;87.20;;;;;;5068530;28;20253;-65
2023/12/13 12:20:36;;;;;;;21.60;5.10;;;23.60;87.50;;;;;;5068455;28;20240;-73
2023/12/13 12:23:03;;;;;;;21.10;5.10;;;23.60;87.70;;;;;;5068351;28;20233;-76
2023/12/13 12:25:33;;;;;;;17.73;5.60;;;23.50;87.70;;;;;;5065574;27;20187;-71
2023/12/13 12:28:08;;;;;;;18.47;5.23;;;23.60;88.30;;;;;;5068666;28;20714;-74
2023/12/13 12:30:35;;;;;;;19.33;5.53;;;23.50;88.30;;;;;;5069196;27;20570;-67
2023/12/13 12:33:02;;;;;;;17.37;5.17;;;23.50;88.80;;;;;;5068260;28;20190;-72
2023/12/13 12:35:30;;;;;;;14.87;5.10;;;23.50;89.10;;;;;;5067929;28;20637;-64
2023/12/13 12:37:58;;;;;;;12.80;4.73;;;23.30;89.20;;;;;;5068264;28;20258;-67
2023/12/13 12:40:25;;;;;;;18.80;5.80;;;23.30;89.30;;;;;;5068858;28;20179;-68
2023/12/13 12:42:53;;;;;;;10.03;4.60;;;23.30;89.70;;;;;;5068160;28;20180;-68
2023/12/13 12:45:24;;;;;;;16.90;5.27;;;23.30;90.00;;;;;;5062063;28;20225;-68